PWSweather.com
Personal Weather Stations
Station Observations
KMOCREVE3
Whispering Hills, Creve Coeur, MO 63146

Whispering HillsCreve Coeur, MO 63146

Lat: 38.68, Lon: -90.463

Elevation: 530

Station Type: Vantage Vue

Latest ConditionsUpdated 6:40:01 AM CDT Saturday, May 28, 2016
Currently Today's Max Today's Min Today's Average
Temperature 67.6°F19.8°C 70.4°F21.3°C 66.5°F19.2°C 68.2°F20.1°C
Dew Point 65.5°F18.6°C 68.6°F20.3°C 65.0°F18.3°C 66.2°F19.0°C
Winds 3.0 mph SE4.8 kmh SE 4.0 mph SE6.4 kmh SE - 2.4 mph 3.9 kmh
Wind Gusts 8.0 mph12.9 kmh 12.0 mph19.3 kmh - -
Humidity 93% 95% 92% 94%
Pressure 29.86 in1011.2 mb 29.86 in1011.2 mb 29.79 in1008.8 mb -
Hour Temp Dew Point Humidity Winds Wind Gusts Pressure Precip Precip Rate Daily Precip Total
06:40 AM 67.6°F19.8°C 65.5°F18.6°C 93% 3.0 mph SE4.8 kmh SE 8.0 mph12.9 kmh 29.86 in1011.2 mb 0.00 in0.0 mm 0.00 in0.0 mm 0.00 in0.0 mm
06:30 AM 67.5°F19.7°C 65.4°F18.6°C 93% 3.0 mph SE4.8 kmh SE 10.0 mph16.1 kmh 29.85 in1010.8 mb 0.00 in0.0 mm 0.00 in0.0 mm 0.00 in0.0 mm
06:20 AM 67.5°F19.7°C 65.4°F18.6°C 93% 2.0 mph SE3.2 kmh SE 6.0 mph9.7 kmh 29.85 in1010.8 mb 0.00 in0.0 mm 0.00 in0.0 mm 0.00 in0.0 mm
06:10 AM 67.4°F19.7°C 65.6°F18.7°C 94% 3.0 mph SE4.8 kmh SE 9.0 mph14.5 kmh 29.85 in1010.8 mb 0.00 in0.0 mm 0.00 in0.0 mm 0.00 in0.0 mm
06:00 AM 67.2°F19.6°C 65.4°F18.6°C 94% 3.0 mph SE4.8 kmh SE 7.0 mph11.3 kmh 29.84 in1010.5 mb 0.00 in0.0 mm 0.00 in0.0 mm 0.00 in0.0 mm
05:50 AM 67.1°F19.5°C 65.3°F18.5°C 94% 3.0 mph SE4.8 kmh SE 8.0 mph12.9 kmh 29.85 in1010.8 mb 0.00 in0.0 mm 0.00 in0.0 mm 0.00 in0.0 mm
05:40 AM 67.0°F19.4°C 65.2°F18.4°C 94% 3.0 mph SE4.8 kmh SE 7.0 mph11.3 kmh 29.85 in1010.8 mb 0.00 in0.0 mm 0.00 in0.0 mm 0.00 in0.0 mm
05:30 AM 67.0°F19.4°C 65.2°F18.4°C 94% 4.0 mph SE6.4 kmh SE 8.0 mph12.9 kmh 29.84 in1010.5 mb 0.00 in0.0 mm 0.00 in0.0 mm 0.00 in0.0 mm
05:20 AM 66.8°F19.3°C 65.3°F18.5°C 95% 3.0 mph SE4.8 kmh SE 12.0 mph19.3 kmh 29.84 in1010.5 mb 0.00 in0.0 mm 0.00 in0.0 mm 0.00 in0.0 mm
05:10 AM 66.8°F19.3°C 65.3°F18.5°C 95% 4.0 mph SE6.4 kmh SE 9.0 mph14.5 kmh 29.84 in1010.5 mb 0.00 in0.0 mm 0.00 in0.0 mm 0.00 in0.0 mm
05:00 AM 66.6°F19.2°C 65.1°F18.4°C 95% 3.0 mph SE4.8 kmh SE 8.0 mph12.9 kmh 29.84 in1010.5 mb 0.00 in0.0 mm 0.00 in0.0 mm 0.00 in0.0 mm
04:50 AM 66.5°F19.2°C 65.0°F18.3°C 95% 3.0 mph SE4.8 kmh SE 7.0 mph11.3 kmh 29.84 in1010.5 mb 0.00 in0.0 mm 0.00 in0.0 mm 0.00 in0.0 mm
04:40 AM 66.5°F19.2°C 65.0°F18.3°C 95% 2.0 mph SE3.2 kmh SE 6.0 mph9.7 kmh 29.84 in1010.5 mb 0.00 in0.0 mm 0.00 in0.0 mm 0.00 in0.0 mm
04:30 AM 66.6°F19.2°C 65.1°F18.4°C 95% 1.0 mph ESE1.6 kmh ESE 4.0 mph6.4 kmh 29.84 in1010.5 mb 0.00 in0.0 mm 0.00 in0.0 mm 0.00 in0.0 mm
04:20 AM 66.7°F19.3°C 65.2°F18.4°C 95% 1.0 mph SE1.6 kmh SE 4.0 mph6.4 kmh 29.84 in1010.5 mb 0.00 in0.0 mm 0.00 in0.0 mm 0.00 in0.0 mm
04:10 AM 66.9°F19.4°C 65.1°F18.4°C 94% 1.0 mph SE1.6 kmh SE 3.0 mph4.8 kmh 29.84 in1010.5 mb 0.00 in0.0 mm 0.00 in0.0 mm 0.00 in0.0 mm
04:00 AM 67.1°F19.5°C 65.3°F18.5°C 94% 1.0 mph SE1.6 kmh SE 3.0 mph4.8 kmh 29.84 in1010.5 mb 0.00 in0.0 mm 0.00 in0.0 mm 0.00 in0.0 mm
03:50 AM 67.3°F19.6°C 65.5°F18.6°C 94% 2.0 mph ESE3.2 kmh ESE 4.0 mph6.4 kmh 29.83 in1010.2 mb 0.00 in0.0 mm 0.00 in0.0 mm 0.00 in0.0 mm
03:40 AM 67.4°F19.7°C 65.6°F18.7°C 94% Calm Calm 2.0 mph3.2 kmh 29.83 in1010.2 mb 0.00 in0.0 mm 0.00 in0.0 mm 0.00 in0.0 mm
03:30 AM 67.5°F19.7°C 65.4°F18.6°C 93% 2.0 mph SE3.2 kmh SE 6.0 mph9.7 kmh 29.83 in1010.2 mb 0.00 in0.0 mm 0.00 in0.0 mm 0.00 in0.0 mm
03:20 AM 67.9°F19.9°C 65.8°F18.8°C 93% 1.0 mph SE1.6 kmh SE 4.0 mph6.4 kmh 29.83 in1010.2 mb 0.00 in0.0 mm 0.00 in0.0 mm 0.00 in0.0 mm
03:10 AM 67.9°F19.9°C 65.8°F18.8°C 93% 1.0 mph SE1.6 kmh SE 3.0 mph4.8 kmh 29.82 in1009.8 mb 0.00 in0.0 mm 0.00 in0.0 mm 0.00 in0.0 mm
03:00 AM 68.3°F20.2°C 65.9°F18.8°C 92% 1.0 mph SE1.6 kmh SE 4.0 mph6.4 kmh 29.82 in1009.8 mb 0.00 in0.0 mm 0.00 in0.0 mm 0.00 in0.0 mm
02:50 AM 68.5°F20.3°C 66.1°F18.9°C 92% 2.0 mph SE3.2 kmh SE 7.0 mph11.3 kmh 29.82 in1009.8 mb 0.00 in0.0 mm 0.00 in0.0 mm 0.00 in0.0 mm
02:40 AM 68.8°F20.4°C 66.4°F19.1°C 92% 3.0 mph SE4.8 kmh SE 8.0 mph12.9 kmh 29.82 in1009.8 mb 0.00 in0.0 mm 0.00 in0.0 mm 0.00 in0.0 mm
02:30 AM 68.9°F20.5°C 66.5°F19.2°C 92% 2.0 mph SE3.2 kmh SE 7.0 mph11.3 kmh 29.81 in1009.5 mb 0.00 in0.0 mm 0.00 in0.0 mm 0.00 in0.0 mm
02:20 AM 68.8°F20.4°C 66.4°F19.1°C 92% 3.0 mph SE4.8 kmh SE 7.0 mph11.3 kmh 29.81 in1009.5 mb 0.00 in0.0 mm 0.00 in0.0 mm 0.00 in0.0 mm
02:10 AM 68.8°F20.4°C 66.7°F19.3°C 93% 3.0 mph SE4.8 kmh SE 10.0 mph16.1 kmh 29.81 in1009.5 mb 0.00 in0.0 mm 0.00 in0.0 mm 0.00 in0.0 mm
02:00 AM 68.8°F20.4°C 66.7°F19.3°C 93% 4.0 mph SE6.4 kmh SE 9.0 mph14.5 kmh 29.81 in1009.5 mb 0.00 in0.0 mm 0.00 in0.0 mm 0.00 in0.0 mm
01:50 AM 69.0°F20.6°C 66.6°F19.2°C 92% 3.0 mph SE4.8 kmh SE 7.0 mph11.3 kmh 29.81 in1009.5 mb 0.00 in0.0 mm 0.00 in0.0 mm 0.00 in0.0 mm
01:40 AM 69.2°F20.7°C 67.1°F19.5°C 93% 4.0 mph SE6.4 kmh SE 11.0 mph17.7 kmh 29.81 in1009.5 mb 0.00 in0.0 mm 0.00 in0.0 mm 0.00 in0.0 mm
01:30 AM 69.4°F20.8°C 67.3°F19.6°C 93% 3.0 mph SE4.8 kmh SE 9.0 mph14.5 kmh 29.80 in1009.1 mb 0.00 in0.0 mm 0.00 in0.0 mm 0.00 in0.0 mm
01:20 AM 69.6°F20.9°C 67.5°F19.7°C 93% 2.0 mph SE3.2 kmh SE 6.0 mph9.7 kmh 29.81 in1009.5 mb 0.00 in0.0 mm 0.00 in0.0 mm 0.00 in0.0 mm
01:10 AM 69.7°F20.9°C 67.6°F19.8°C 93% 2.0 mph SE3.2 kmh SE 7.0 mph11.3 kmh 29.80 in1009.1 mb 0.00 in0.0 mm 0.00 in0.0 mm 0.00 in0.0 mm
01:00 AM 69.8°F21.0°C 67.7°F19.8°C 93% 3.0 mph SE4.8 kmh SE 9.0 mph14.5 kmh 29.80 in1009.1 mb 0.00 in0.0 mm 0.00 in0.0 mm 0.00 in0.0 mm
12:50 AM 69.9°F21.1°C 67.8°F19.9°C 93% 3.0 mph SE4.8 kmh SE 8.0 mph12.9 kmh 29.79 in1008.8 mb 0.00 in0.0 mm 0.00 in0.0 mm 0.00 in0.0 mm
12:40 AM 70.1°F21.2°C 68.0°F20.0°C 93% 3.0 mph SE4.8 kmh SE 8.0 mph12.9 kmh 29.79 in1008.8 mb 0.00 in0.0 mm 0.00 in0.0 mm 0.00 in0.0 mm
12:30 AM 70.2°F21.2°C 68.4°F20.2°C 94% 2.0 mph SE3.2 kmh SE 6.0 mph9.7 kmh 29.80 in1009.1 mb 0.00 in0.0 mm 0.00 in0.0 mm 0.00 in0.0 mm
12:20 AM 70.3°F21.3°C 68.5°F20.3°C 94% 3.0 mph SE4.8 kmh SE 8.0 mph12.9 kmh 29.80 in1009.1 mb 0.00 in0.0 mm 0.00 in0.0 mm 0.00 in0.0 mm
12:10 AM 70.4°F21.3°C 68.6°F20.3°C 94% 2.0 mph SE3.2 kmh SE 9.0 mph14.5 kmh 29.80 in1009.1 mb 0.00 in0.0 mm 0.00 in0.0 mm 0.00 in0.0 mm
12:00 AM 70.3°F21.3°C 68.5°F20.3°C 94% 1.0 mph ESE1.6 kmh ESE 4.0 mph6.4 kmh 29.80 in1009.1 mb 0.00 in0.0 mm 0.00 in0.0 mm 0.00 in0.0 mm